sensor_id;sensor_type;location;lat;lon;timestamp;pressure;altitude;pressure_sealevel;temperature
64947;BMP280;51469;52.150;4.682;2023-05-10T00:04:02;101032.69;;;19.29
64947;BMP280;51469;52.150;4.682;2023-05-10T00:06:28;101042.31;;;19.24
64947;BMP280;51469;52.150;4.682;2023-05-10T00:08:53;101040.16;;;19.16
64947;BMP280;51469;52.150;4.682;2023-05-10T00:11:18;101044.69;;;19.26
64947;BMP280;51469;52.150;4.682;2023-05-10T00:13:45;101044.38;;;19.24
64947;BMP280;51469;52.150;4.682;2023-05-10T00:16:10;101036.16;;;19.17
64947;BMP280;51469;52.150;4.682;2023-05-10T00:18:37;101040.25;;;19.12
64947;BMP280;51469;52.150;4.682;2023-05-10T00:21:02;101041.91;;;19.10
64947;BMP280;51469;52.150;4.682;2023-05-10T00:23:28;101039.63;;;19.05
64947;BMP280;51469;52.150;4.682;2023-05-10T00:25:53;101047.53;;;19.06
64947;BMP280;51469;52.150;4.682;2023-05-10T00:28:18;101041.25;;;19.02
64947;BMP280;51469;52.150;4.682;2023-05-10T00:30:44;101042.38;;;18.89
64947;BMP280;51469;52.150;4.682;2023-05-10T00:33:09;101037.50;;;18.93
64947;BMP280;51469;52.150;4.682;2023-05-10T00:35:34;101039.59;;;18.89
64947;BMP280;51469;52.150;4.682;2023-05-10T00:38:00;101035.94;;;18.92
64947;BMP280;51469;52.150;4.682;2023-05-10T00:40:25;101039.94;;;18.91
64947;BMP280;51469;52.150;4.682;2023-05-10T00:42:50;101036.03;;;18.88
64947;BMP280;51469;52.150;4.682;2023-05-10T00:45:16;101037.66;;;18.86
64947;BMP280;51469;52.150;4.682;2023-05-10T00:47:42;101035.16;;;18.91
64947;BMP280;51469;52.150;4.682;2023-05-10T00:50:07;101036.28;;;18.94
64947;BMP280;51469;52.150;4.682;2023-05-10T00:52:34;101041.13;;;18.90
64947;BMP280;51469;52.150;4.682;2023-05-10T00:55:00;101043.84;;;18.93
64947;BMP280;51469;52.150;4.682;2023-05-10T00:57:25;101034.38;;;18.91
64947;BMP280;51469;52.150;4.682;2023-05-10T00:59:51;101043.06;;;18.93
64947;BMP280;51469;52.150;4.682;2023-05-10T01:02:17;101044.28;;;18.92
64947;BMP280;51469;52.150;4.682;2023-05-10T01:04:43;101050.19;;;18.94
64947;BMP280;51469;52.150;4.682;2023-05-10T01:07:08;101040.63;;;18.95
64947;BMP280;51469;52.150;4.682;2023-05-10T01:09:33;101030.38;;;18.92
64947;BMP280;51469;52.150;4.682;2023-05-10T01:11:59;101035.56;;;18.90
64947;BMP280;51469;52.150;4.682;2023-05-10T01:14:26;101040.81;;;18.88
64947;BMP280;51469;52.150;4.682;2023-05-10T01:16:52;101056.06;;;18.80
64947;BMP280;51469;52.150;4.682;2023-05-10T01:19:22;101051.72;;;18.79
64947;BMP280;51469;52.150;4.682;2023-05-10T01:22:10;101059.06;;;18.89
64947;BMP280;51469;52.150;4.682;2023-05-10T01:25:09;101058.25;;;18.88
64947;BMP280;51469;52.150;4.682;2023-05-10T01:33:39;101059.06;;;18.89
64947;BMP280;51469;52.150;4.682;2023-05-10T01:36:16;101059.91;;;18.86
64947;BMP280;51469;52.150;4.682;2023-05-10T01:38:51;101061.66;;;18.76
64947;BMP280;51469;52.150;4.682;2023-05-10T01:41:25;101072.63;;;19.03
64947;BMP280;51469;52.150;4.682;2023-05-10T01:43:57;101074.38;;;19.13
64947;BMP280;51469;52.150;4.682;2023-05-10T01:46:31;101078.56;;;19.05
64947;BMP280;51469;52.150;4.682;2023-05-10T01:48:59;101087.56;;;18.73
64947;BMP280;51469;52.150;4.682;2023-05-10T01:51:31;101083.28;;;18.69
64947;BMP280;51469;52.150;4.682;2023-05-10T01:54:01;101081.50;;;18.78
64947;BMP280;51469;52.150;4.682;2023-05-10T01:56:29;101079.03;;;18.84
64947;BMP280;51469;52.150;4.682;2023-05-10T01:58:56;101089.72;;;18.66
64947;BMP280;51469;52.150;4.682;2023-05-10T02:01:22;101081.56;;;18.94
64947;BMP280;51469;52.150;4.682;2023-05-10T02:03:50;101086.53;;;19.03
64947;BMP280;51469;52.150;4.682;2023-05-10T02:06:18;101090.38;;;19.09
64947;BMP280;51469;52.150;4.682;2023-05-10T02:08:45;101087.56;;;18.93
64947;BMP280;51469;52.150;4.682;2023-05-10T02:11:13;101089.84;;;18.98
64947;BMP280;51469;52.150;4.682;2023-05-10T02:13:39;101097.50;;;18.74
64947;BMP280;51469;52.150;4.682;2023-05-10T02:16:05;101078.41;;;18.34
64947;BMP280;51469;52.150;4.682;2023-05-10T02:18:32;101101.25;;;18.84
64947;BMP280;51469;52.150;4.682;2023-05-10T02:20:59;101106.09;;;18.80
64947;BMP280;51469;52.150;4.682;2023-05-10T02:23:25;101098.41;;;18.87
64947;BMP280;51469;52.150;4.682;2023-05-10T02:25:52;101097.59;;;19.06
64947;BMP280;51469;52.150;4.682;2023-05-10T02:28:19;101109.28;;;19.17
64947;BMP280;51469;52.150;4.682;2023-05-10T02:30:46;101099.91;;;19.08
64947;BMP280;51469;52.150;4.682;2023-05-10T02:33:13;101104.41;;;19.21
64947;BMP280;51469;52.150;4.682;2023-05-10T02:35:39;101112.47;;;19.16
64947;BMP280;51469;52.150;4.682;2023-05-10T02:38:06;101108.66;;;19.26
64947;BMP280;51469;52.150;4.682;2023-05-10T02:40:33;101105.63;;;19.20
64947;BMP280;51469;52.150;4.682;2023-05-10T02:42:59;101101.91;;;19.27
64947;BMP280;51469;52.150;4.682;2023-05-10T02:45:29;101106.25;;;19.44
64947;BMP280;51469;52.150;4.682;2023-05-10T02:47:56;101102.19;;;19.13
64947;BMP280;51469;52.150;4.682;2023-05-10T02:50:22;101108.38;;;19.40
64947;BMP280;51469;52.150;4.682;2023-05-10T02:52:50;101101.63;;;19.37
64947;BMP280;51469;52.150;4.682;2023-05-10T02:55:19;101099.63;;;19.22
64947;BMP280;51469;52.150;4.682;2023-05-10T02:57:53;101102.28;;;19.45
64947;BMP280;51469;52.150;4.682;2023-05-10T03:00:19;101102.78;;;19.24
64947;BMP280;51469;52.150;4.682;2023-05-10T03:02:44;101107.31;;;19.34
64947;BMP280;51469;52.150;4.682;2023-05-10T03:05:10;101112.91;;;19.50
64947;BMP280;51469;52.150;4.682;2023-05-10T03:07:35;101109.75;;;19.32
64947;BMP280;51469;52.150;4.682;2023-05-10T03:10:02;101115.50;;;19.41
64947;BMP280;51469;52.150;4.682;2023-05-10T03:15:22;101107.06;;;19.44
64947;BMP280;51469;52.150;4.682;2023-05-10T03:18:06;101108.53;;;19.33
64947;BMP280;51469;52.150;4.682;2023-05-10T03:20:36;101108.06;;;19.18
64947;BMP280;51469;52.150;4.682;2023-05-10T03:25:48;101109.41;;;19.46
64947;BMP280;51469;52.150;4.682;2023-05-10T03:28:15;101122.28;;;19.40
64947;BMP280;51469;52.150;4.682;2023-05-10T03:30:42;101113.41;;;19.45
64947;BMP280;51469;52.150;4.682;2023-05-10T03:33:08;101113.41;;;19.45
64947;BMP280;51469;52.150;4.682;2023-05-10T03:35:34;101120.16;;;19.28
64947;BMP280;51469;52.150;4.682;2023-05-10T03:37:59;101116.16;;;19.29
64947;BMP280;51469;52.150;4.682;2023-05-10T03:40:26;101112.75;;;19.37
64947;BMP280;51469;52.150;4.682;2023-05-10T03:42:51;101113.72;;;19.31
64947;BMP280;51469;52.150;4.682;2023-05-10T03:45:17;101117.72;;;19.30
64947;BMP280;51469;52.150;4.682;2023-05-10T03:47:42;101121.16;;;19.18
64947;BMP280;51469;52.150;4.682;2023-05-10T03:50:07;101120.88;;;19.32
64947;BMP280;51469;52.150;4.682;2023-05-10T03:52:33;101118.22;;;19.25
64947;BMP280;51469;52.150;4.682;2023-05-10T03:54:58;101115.31;;;19.32
64947;BMP280;51469;52.150;4.682;2023-05-10T03:57:24;101127.13;;;19.36
64947;BMP280;51469;52.150;4.682;2023-05-10T03:59:49;101130.59;;;19.24
64947;BMP280;51469;52.150;4.682;2023-05-10T04:02:15;101127.94;;;19.36
64947;BMP280;51469;52.150;4.682;2023-05-10T04:04:40;101139.63;;;19.28
64947;BMP280;51469;52.150;4.682;2023-05-10T04:07:06;101134.06;;;19.28
64947;BMP280;51469;52.150;4.682;2023-05-10T04:09:31;101135.03;;;19.37
64947;BMP280;51469;52.150;4.682;2023-05-10T04:11:58;101129.25;;;19.48
64947;BMP280;51469;52.150;4.682;2023-05-10T04:14:24;101132.38;;;19.50
64947;BMP280;51469;52.150;4.682;2023-05-10T04:16:50;101128.72;;;19.37
64947;BMP280;51469;52.150;4.682;2023-05-10T04:19:15;101122.78;;;19.35
64947;BMP280;51469;52.150;4.682;2023-05-10T04:21:40;101119.84;;;19.42
64947;BMP280;51469;52.150;4.682;2023-05-10T04:24:06;101126.13;;;19.46
64947;BMP280;51469;52.150;4.682;2023-05-10T04:26:31;101126.81;;;19.50
64947;BMP280;51469;52.150;4.682;2023-05-10T04:28:56;101135.16;;;19.50
64947;BMP280;51469;52.150;4.682;2023-05-10T04:31:22;101133.59;;;19.49
64947;BMP280;51469;52.150;4.682;2023-05-10T04:33:47;101140.66;;;19.53
64947;BMP280;51469;52.150;4.682;2023-05-10T04:36:12;101132.03;;;19.48
64947;BMP280;51469;52.150;4.682;2023-05-10T04:38:38;101143.53;;;19.50
64947;BMP280;51469;52.150;4.682;2023-05-10T04:41:07;101148.13;;;19.40
64947;BMP280;51469;52.150;4.682;2023-05-10T04:43:33;101155.50;;;19.47
64947;BMP280;51469;52.150;4.682;2023-05-10T04:45:59;101160.34;;;19.43
64947;BMP280;51469;52.150;4.682;2023-05-10T04:48:24;101160.69;;;19.29
64947;BMP280;51469;52.150;4.682;2023-05-10T04:50:50;101150.09;;;19.40
64947;BMP280;51469;52.150;4.682;2023-05-10T04:53:15;101156.53;;;19.37
64947;BMP280;51469;52.150;4.682;2023-05-10T04:55:41;101159.50;;;19.46
64947;BMP280;51469;52.150;4.682;2023-05-10T04:58:06;101150.72;;;19.47
64947;BMP280;51469;52.150;4.682;2023-05-10T05:00:33;101154.38;;;19.60
64947;BMP280;51469;52.150;4.682;2023-05-10T05:02:58;101169.47;;;19.63
64947;BMP280;51469;52.150;4.682;2023-05-10T05:05:24;101168.91;;;19.68
64947;BMP280;51469;52.150;4.682;2023-05-10T05:07:50;101169.06;;;19.45
64947;BMP280;51469;52.150;4.682;2023-05-10T05:10:15;101164.59;;;19.67
64947;BMP280;51469;52.150;4.682;2023-05-10T05:12:41;101168.28;;;19.80
64947;BMP280;51469;52.150;4.682;2023-05-10T05:15:06;101178.16;;;19.65
64947;BMP280;51469;52.150;4.682;2023-05-10T05:17:34;101178.53;;;19.83
64947;BMP280;51469;52.150;4.682;2023-05-10T05:19:59;101180.81;;;19.88
64947;BMP280;51469;52.150;4.682;2023-05-10T05:22:24;101181.13;;;19.74
64947;BMP280;51469;52.150;4.682;2023-05-10T05:24:57;101183.94;;;19.90
64947;BMP280;51469;52.150;4.682;2023-05-10T05:27:23;101180.25;;;19.93
64947;BMP280;51469;52.150;4.682;2023-05-10T05:29:52;101189.91;;;19.88
64947;BMP280;51469;52.150;4.682;2023-05-10T05:32:18;101191.94;;;19.88
64947;BMP280;51469;52.150;4.682;2023-05-10T05:34:46;101198.34;;;19.85
64947;BMP280;51469;52.150;4.682;2023-05-10T05:37:13;101197.81;;;19.74
64947;BMP280;51469;52.150;4.682;2023-05-10T05:39:39;101200.09;;;19.79
64947;BMP280;51469;52.150;4.682;2023-05-10T05:42:04;101199.22;;;19.82
64947;BMP280;51469;52.150;4.682;2023-05-10T05:44:30;101202.88;;;19.63
64947;BMP280;51469;52.150;4.682;2023-05-10T05:46:55;101206.53;;;19.76
64947;BMP280;51469;52.150;4.682;2023-05-10T05:49:20;101206.09;;;19.93
64947;BMP280;51469;52.150;4.682;2023-05-10T05:51:46;101205.50;;;20.02
64947;BMP280;51469;52.150;4.682;2023-05-10T05:54:12;101208.78;;;19.81
64947;BMP280;51469;52.150;4.682;2023-05-10T05:56:38;101217.44;;;19.86
64947;BMP280;51469;52.150;4.682;2023-05-10T05:59:03;101211.63;;;20.13
64947;BMP280;51469;52.150;4.682;2023-05-10T06:01:28;101208.66;;;20.04
64947;BMP280;51469;52.150;4.682;2023-05-10T06:03:54;101219.59;;;19.79
64947;BMP280;51469;52.150;4.682;2023-05-10T06:06:19;101220.63;;;19.85
64947;BMP280;51469;52.150;4.682;2023-05-10T06:08:44;101217.50;;;19.99
64947;BMP280;51469;52.150;4.682;2023-05-10T06:11:10;101223.25;;;19.92
64947;BMP280;51469;52.150;4.682;2023-05-10T06:13:35;101214.09;;;19.75
64947;BMP280;51469;52.150;4.682;2023-05-10T06:16:02;101217.69;;;19.76
64947;BMP280;51469;52.150;4.682;2023-05-10T06:18:27;101220.28;;;19.67
64947;BMP280;51469;52.150;4.682;2023-05-10T06:20:53;101212.25;;;19.69
64947;BMP280;51469;52.150;4.682;2023-05-10T06:23:18;101216.63;;;19.86
64947;BMP280;51469;52.150;4.682;2023-05-10T06:25:43;101223.25;;;19.92
64947;BMP280;51469;52.150;4.682;2023-05-10T06:28:09;101215.91;;;19.66
64947;BMP280;51469;52.150;4.682;2023-05-10T06:30:36;101223.69;;;19.90
64947;BMP280;51469;52.150;4.682;2023-05-10T06:33:01;101228.66;;;19.83
64947;BMP280;51469;52.150;4.682;2023-05-10T06:35:27;101221.69;;;19.91
64947;BMP280;51469;52.150;4.682;2023-05-10T06:37:53;101223.97;;;19.80
64947;BMP280;51469;52.150;4.682;2023-05-10T06:40:18;101230.69;;;19.63
64947;BMP280;51469;52.150;4.682;2023-05-10T06:42:44;101227.84;;;19.82
64947;BMP280;51469;52.150;4.682;2023-05-10T06:45:10;101229.84;;;19.82
64947;BMP280;51469;52.150;4.682;2023-05-10T06:47:36;101231.94;;;19.94
64947;BMP280;51469;52.150;4.682;2023-05-10T06:50:01;101235.19;;;20.08
64947;BMP280;51469;52.150;4.682;2023-05-10T06:52:27;101237.69;;;20.35
64947;BMP280;51469;52.150;4.682;2023-05-10T06:54:52;101237.16;;;20.56
64947;BMP280;51469;52.150;4.682;2023-05-10T06:57:17;101243.56;;;20.85
64947;BMP280;51469;52.150;4.682;2023-05-10T06:59:43;101235.63;;;20.55
64947;BMP280;51469;52.150;4.682;2023-05-10T07:02:08;101234.56;;;20.49
64947;BMP280;51469;52.150;4.682;2023-05-10T07:04:34;101238.94;;;20.50
64947;BMP280;51469;52.150;4.682;2023-05-10T07:06:59;101244.31;;;20.57
64947;BMP280;51469;52.150;4.682;2023-05-10T07:09:24;101244.81;;;20.68
64947;BMP280;51469;52.150;4.682;2023-05-10T07:11:50;101251.72;;;20.92
64947;BMP280;51469;52.150;4.682;2023-05-10T07:14:15;101258.25;;;21.01
64947;BMP280;51469;52.150;4.682;2023-05-10T07:16:40;101259.75;;;20.90
64947;BMP280;51469;52.150;4.682;2023-05-10T07:19:06;101254.31;;;20.99
64947;BMP280;51469;52.150;4.682;2023-05-10T07:21:32;101251.66;;;21.08
64947;BMP280;51469;52.150;4.682;2023-05-10T07:23:57;101250.59;;;21.18
64947;BMP280;51469;52.150;4.682;2023-05-10T07:26:23;101252.34;;;21.12
64947;BMP280;51469;52.150;4.682;2023-05-10T07:28:49;101252.97;;;21.19
64947;BMP280;51469;52.150;4.682;2023-05-10T07:31:14;101257.06;;;21.15
64947;BMP280;51469;52.150;4.682;2023-05-10T07:33:40;101256.72;;;21.13
64947;BMP280;51469;52.150;4.682;2023-05-10T07:36:05;101257.78;;;21.44
64947;BMP280;51469;52.150;4.682;2023-05-10T07:38:31;101260.94;;;21.46
64947;BMP280;51469;52.150;4.682;2023-05-10T07:40:56;101267.19;;;21.50
64947;BMP280;51469;52.150;4.682;2023-05-10T07:43:22;101257.94;;;21.53
64947;BMP280;51469;52.150;4.682;2023-05-10T07:45:47;101262.72;;;21.65
64947;BMP280;51469;52.150;4.682;2023-05-10T07:48:12;101260.41;;;21.76
64947;BMP280;51469;52.150;4.682;2023-05-10T07:50:38;101261.94;;;22.02
64947;BMP280;51469;52.150;4.682;2023-05-10T07:53:03;101263.63;;;21.87
64947;BMP280;51469;52.150;4.682;2023-05-10T07:55:28;101264.84;;;21.07
64947;BMP280;51469;52.150;4.682;2023-05-10T07:57:54;101273.44;;;21.54
64947;BMP280;51469;52.150;4.682;2023-05-10T08:00:20;101261.38;;;21.57
64947;BMP280;51469;52.150;4.682;2023-05-10T08:02:46;101266.75;;;21.64
64947;BMP280;51469;52.150;4.682;2023-05-10T08:05:12;101267.31;;;21.71
64947;BMP280;51469;52.150;4.682;2023-05-10T08:07:37;101278.44;;;21.34
64947;BMP280;51469;52.150;4.682;2023-05-10T08:10:03;101271.75;;;21.44
64947;BMP280;51469;52.150;4.682;2023-05-10T08:12:29;101273.31;;;21.45
64947;BMP280;51469;52.150;4.682;2023-05-10T08:14:55;101276.91;;;21.83
64947;BMP280;51469;52.150;4.682;2023-05-10T08:17:20;101278.38;;;22.00
64947;BMP280;51469;52.150;4.682;2023-05-10T08:19:46;101282.63;;;21.92
64947;BMP280;51469;52.150;4.682;2023-05-10T08:22:11;101283.97;;;22.00
64947;BMP280;51469;52.150;4.682;2023-05-10T08:24:37;101289.53;;;21.75
64947;BMP280;51469;52.150;4.682;2023-05-10T08:27:05;101293.94;;;22.01
64947;BMP280;51469;52.150;4.682;2023-05-10T08:29:30;101288.66;;;22.03
64947;BMP280;51469;52.150;4.682;2023-05-10T08:31:56;101301.19;;;21.86
64947;BMP280;51469;52.150;4.682;2023-05-10T08:34:21;101300.97;;;21.93
64947;BMP280;51469;52.150;4.682;2023-05-10T08:36:46;101309.59;;;21.45
64947;BMP280;51469;52.150;4.682;2023-05-10T08:39:12;101309.63;;;21.16
64947;BMP280;51469;52.150;4.682;2023-05-10T08:41:39;101314.31;;;21.48
64947;BMP280;51469;52.150;4.682;2023-05-10T08:44:05;101322.66;;;21.07
64947;BMP280;51469;52.150;4.682;2023-05-10T08:46:33;101321.56;;;21.45
64947;BMP280;51469;52.150;4.682;2023-05-10T08:49:03;101324.41;;;21.58
64947;BMP280;51469;52.150;4.682;2023-05-10T08:51:32;101326.34;;;21.45
64947;BMP280;51469;52.150;4.682;2023-05-10T08:54:01;101322.25;;;21.74
64947;BMP280;51469;52.150;4.682;2023-05-10T08:56:27;101329.56;;;21.31
64947;BMP280;51469;52.150;4.682;2023-05-10T08:58:52;101335.97;;;21.44
64947;BMP280;51469;52.150;4.682;2023-05-10T09:01:18;101336.16;;;21.37
64947;BMP280;51469;52.150;4.682;2023-05-10T09:03:46;101339.38;;;21.76
64947;BMP280;51469;52.150;4.682;2023-05-10T09:06:12;101350.25;;;21.87
64947;BMP280;51469;52.150;4.682;2023-05-10T09:08:38;101344.88;;;21.80
64947;BMP280;51469;52.150;4.682;2023-05-10T09:11:05;101342.97;;;21.77
64947;BMP280;51469;52.150;4.682;2023-05-10T09:13:30;101348.56;;;21.77
64947;BMP280;51469;52.150;4.682;2023-05-10T09:15:57;101348.19;;;21.75
64947;BMP280;51469;52.150;4.682;2023-05-10T09:18:23;101353.59;;;21.41
64947;BMP280;51469;52.150;4.682;2023-05-10T09:20:49;101351.81;;;21.88
64947;BMP280;51469;52.150;4.682;2023-05-10T09:23:14;101350.47;;;22.05
64947;BMP280;51469;52.150;4.682;2023-05-10T09:25:41;101348.34;;;22.09
64947;BMP280;51469;52.150;4.682;2023-05-10T09:28:08;101351.38;;;22.02
64947;BMP280;51469;52.150;4.682;2023-05-10T09:30:34;101352.25;;;22.24
64947;BMP280;51469;52.150;4.682;2023-05-10T09:33:00;101352.34;;;21.58
64947;BMP280;51469;52.150;4.682;2023-05-10T09:35:31;101358.28;;;21.72
64947;BMP280;51469;52.150;4.682;2023-05-10T09:38:00;101362.22;;;22.00
64947;BMP280;51469;52.150;4.682;2023-05-10T09:40:27;101365.44;;;21.86
64947;BMP280;51469;52.150;4.682;2023-05-10T09:43:02;101362.16;;;21.75
64947;BMP280;51469;52.150;4.682;2023-05-10T09:45:33;101355.59;;;21.81
64947;BMP280;51469;52.150;4.682;2023-05-10T09:48:00;101373.25;;;21.91
64947;BMP280;51469;52.150;4.682;2023-05-10T09:50:27;101359.63;;;21.80
64947;BMP280;51469;52.150;4.682;2023-05-10T09:55:23;101376.09;;;22.16
64947;BMP280;51469;52.150;4.682;2023-05-10T09:57:49;101371.81;;;22.24
64947;BMP280;51469;52.150;4.682;2023-05-10T10:00:23;101371.16;;;21.95
64947;BMP280;51469;52.150;4.682;2023-05-10T10:02:55;101380.66;;;22.22
64947;BMP280;51469;52.150;4.682;2023-05-10T10:05:28;101371.28;;;22.41
64947;BMP280;51469;52.150;4.682;2023-05-10T10:07:53;101377.88;;;22.60
64947;BMP280;51469;52.150;4.682;2023-05-10T10:10:19;101374.25;;;22.72
64947;BMP280;51469;52.150;4.682;2023-05-10T10:12:44;101368.34;;;23.03
64947;BMP280;51469;52.150;4.682;2023-05-10T10:15:10;101373.84;;;23.28
64947;BMP280;51469;52.150;4.682;2023-05-10T10:17:36;101369.97;;;23.13
64947;BMP280;51469;52.150;4.682;2023-05-10T10:20:05;101372.25;;;23.27
64947;BMP280;51469;52.150;4.682;2023-05-10T10:22:31;101375.66;;;23.22
64947;BMP280;51469;52.150;4.682;2023-05-10T10:24:56;101369.69;;;23.63
64947;BMP280;51469;52.150;4.682;2023-05-10T10:27:43;101364.56;;;23.40
64947;BMP280;51469;52.150;4.682;2023-05-10T10:35:28;101368.72;;;23.79
64947;BMP280;51469;52.150;4.682;2023-05-10T10:37:54;101369.06;;;23.90
64947;BMP280;51469;52.150;4.682;2023-05-10T10:40:28;101363.63;;;23.95
64947;BMP280;51469;52.150;4.682;2023-05-10T10:42:55;101370.84;;;24.05
64947;BMP280;51469;52.150;4.682;2023-05-10T10:45:21;101369.91;;;23.99
64947;BMP280;51469;52.150;4.682;2023-05-10T10:47:47;101373.03;;;23.28
64947;BMP280;51469;52.150;4.682;2023-05-10T10:50:13;101374.31;;;23.14
64947;BMP280;51469;52.150;4.682;2023-05-10T10:52:39;101381.50;;;23.58
64947;BMP280;51469;52.150;4.682;2023-05-10T10:55:09;101387.50;;;23.69
64947;BMP280;51469;52.150;4.682;2023-05-10T11:02:49;101396.88;;;22.98
64947;BMP280;51469;52.150;4.682;2023-05-10T11:05:38;101404.03;;;22.99
64947;BMP280;51469;52.150;4.682;2023-05-10T11:08:12;101398.00;;;23.01
64947;BMP280;51469;52.150;4.682;2023-05-10T11:10:39;101401.84;;;23.28
64947;BMP280;51469;52.150;4.682;2023-05-10T11:13:10;101399.09;;;23.37
64947;BMP280;51469;52.150;4.682;2023-05-10T11:15:37;101404.88;;;23.21
64947;BMP280;51469;52.150;4.682;2023-05-10T11:20:42;101412.50;;;22.00
64947;BMP280;51469;52.150;4.682;2023-05-10T11:23:12;101413.75;;;21.29
64947;BMP280;51469;52.150;4.682;2023-05-10T11:25:56;101418.03;;;21.75
64947;BMP280;51469;52.150;4.682;2023-05-10T11:28:22;101412.50;;;22.00
64947;BMP280;51469;52.150;4.682;2023-05-10T11:30:47;101417.75;;;21.98
64947;BMP280;51469;52.150;4.682;2023-05-10T11:33:17;101420.72;;;21.78
64947;BMP280;51469;52.150;4.682;2023-05-10T11:35:43;101424.56;;;21.56
64947;BMP280;51469;52.150;4.682;2023-05-10T11:38:09;101423.69;;;22.00
64947;BMP280;51469;52.150;4.682;2023-05-10T11:40:36;101431.34;;;22.12
64947;BMP280;51469;52.150;4.682;2023-05-10T11:43:02;101433.91;;;22.31
64947;BMP280;51469;52.150;4.682;2023-05-10T11:45:28;101427.84;;;22.20
64947;BMP280;51469;52.150;4.682;2023-05-10T11:47:55;101429.19;;;22.53
64947;BMP280;51469;52.150;4.682;2023-05-10T11:50:20;101432.88;;;22.13
64947;BMP280;51469;52.150;4.682;2023-05-10T11:52:50;101425.03;;;21.95
64947;BMP280;51469;52.150;4.682;2023-05-10T11:55:16;101421.69;;;22.13
64947;BMP280;51469;52.150;4.682;2023-05-10T11:57:41;101430.09;;;22.00
64947;BMP280;51469;52.150;4.682;2023-05-10T12:00:09;101436.03;;;22.15
64947;BMP280;51469;52.150;4.682;2023-05-10T12:02:35;101434.91;;;22.37
64947;BMP280;51469;52.150;4.682;2023-05-10T12:05:00;101435.91;;;22.31
64947;BMP280;51469;52.150;4.682;2023-05-10T12:07:26;101442.06;;;22.26
64947;BMP280;51469;52.150;4.682;2023-05-10T12:10:12;101443.41;;;22.34
64947;BMP280;51469;52.150;4.682;2023-05-10T12:12:45;101435.31;;;22.11
64947;BMP280;51469;52.150;4.682;2023-05-10T12:15:31;101439.59;;;22.28
64947;BMP280;51469;52.150;4.682;2023-05-10T12:17:56;101445.84;;;22.07
64947;BMP280;51469;52.150;4.682;2023-05-10T12:20:24;101448.22;;;21.80
64947;BMP280;51469;52.150;4.682;2023-05-10T12:22:56;101444.16;;;21.68
64947;BMP280;51469;52.150;4.682;2023-05-10T12:25:23;101451.81;;;21.80
64947;BMP280;51469;52.150;4.682;2023-05-10T12:27:58;101449.03;;;21.93
64947;BMP280;51469;52.150;4.682;2023-05-10T12:30:27;101448.97;;;22.09
64947;BMP280;51469;52.150;4.682;2023-05-10T12:32:53;101450.44;;;22.26
64947;BMP280;51469;52.150;4.682;2023-05-10T12:35:19;101445.88;;;22.32
64947;BMP280;51469;52.150;4.682;2023-05-10T12:37:49;101444.44;;;22.65
64947;BMP280;51469;52.150;4.682;2023-05-10T12:40:15;101446.16;;;22.83
64947;BMP280;51469;52.150;4.682;2023-05-10T12:42:40;101448.53;;;22.73
64947;BMP280;51469;52.150;4.682;2023-05-10T12:45:07;101451.44;;;22.82
64947;BMP280;51469;52.150;4.682;2023-05-10T12:47:33;101443.59;;;22.77
64947;BMP280;51469;52.150;4.682;2023-05-10T12:50:00;101448.09;;;22.62
64947;BMP280;51469;52.150;4.682;2023-05-10T12:52:26;101461.53;;;22.67
64947;BMP280;51469;52.150;4.682;2023-05-10T12:54:52;101455.03;;;22.20
64947;BMP280;51469;52.150;4.682;2023-05-10T12:57:18;101470.16;;;21.94
64947;BMP280;51469;52.150;4.682;2023-05-10T12:59:43;101459.94;;;22.16
64947;BMP280;51469;52.150;4.682;2023-05-10T13:02:09;101469.75;;;22.08
64947;BMP280;51469;52.150;4.682;2023-05-10T13:04:34;101470.38;;;21.87
64947;BMP280;51469;52.150;4.682;2023-05-10T13:06:59;101473.63;;;21.85
64947;BMP280;51469;52.150;4.682;2023-05-10T13:09:26;101477.31;;;21.95
64947;BMP280;51469;52.150;4.682;2023-05-10T13:11:52;101475.94;;;22.15
64947;BMP280;51469;52.150;4.682;2023-05-10T13:14:19;101469.81;;;22.58
64947;BMP280;51469;52.150;4.682;2023-05-10T13:16:46;101470.72;;;22.55
64947;BMP280;51469;52.150;4.682;2023-05-10T13:19:12;101478.69;;;23.02
64947;BMP280;51469;52.150;4.682;2023-05-10T13:21:37;101472.31;;;23.14
64947;BMP280;51469;52.150;4.682;2023-05-10T13:24:03;101477.84;;;23.39
64947;BMP280;51469;52.150;4.682;2023-05-10T13:26:28;101473.63;;;23.56
64947;BMP280;51469;52.150;4.682;2023-05-10T13:28:54;101475.69;;;23.65
64947;BMP280;51469;52.150;4.682;2023-05-10T13:31:20;101480.56;;;23.73
64947;BMP280;51469;52.150;4.682;2023-05-10T13:33:46;101475.50;;;24.02
64947;BMP280;51469;52.150;4.682;2023-05-10T13:36:11;101489.50;;;23.59
64947;BMP280;51469;52.150;4.682;2023-05-10T13:38:37;101484.03;;;23.56
64947;BMP280;51469;52.150;4.682;2023-05-10T13:41:02;101485.28;;;23.33
64947;BMP280;51469;52.150;4.682;2023-05-10T13:43:29;101475.91;;;23.02
64947;BMP280;51469;52.150;4.682;2023-05-10T13:45:54;101485.94;;;23.25
64947;BMP280;51469;52.150;4.682;2023-05-10T13:48:19;101493.91;;;23.14
64947;BMP280;51469;52.150;4.682;2023-05-10T13:50:45;101488.03;;;23.12
64947;BMP280;51469;52.150;4.682;2023-05-10T13:53:11;101489.13;;;23.02
64947;BMP280;51469;52.150;4.682;2023-05-10T13:55:36;101492.63;;;22.93
64947;BMP280;51469;52.150;4.682;2023-05-10T13:58:02;101498.91;;;22.73
64947;BMP280;51469;52.150;4.682;2023-05-10T14:00:27;101487.94;;;22.78
64947;BMP280;51469;52.150;4.682;2023-05-10T14:02:53;101493.63;;;22.62
64947;BMP280;51469;52.150;4.682;2023-05-10T14:05:19;101490.41;;;22.39
64947;BMP280;51469;52.150;4.682;2023-05-10T14:07:44;101488.69;;;22.16
64947;BMP280;51469;52.150;4.682;2023-05-10T14:10:10;101487.69;;;22.23
64947;BMP280;51469;52.150;4.682;2023-05-10T14:12:35;101495.81;;;22.17
64947;BMP280;51469;52.150;4.682;2023-05-10T14:15:00;101504.56;;;22.19
64947;BMP280;51469;52.150;4.682;2023-05-10T14:17:26;101499.06;;;22.16
64947;BMP280;51469;52.150;4.682;2023-05-10T14:19:52;101482.97;;;22.32
64947;BMP280;51469;52.150;4.682;2023-05-10T14:22:17;101492.97;;;22.46
64947;BMP280;51469;52.150;4.682;2023-05-10T14:24:43;101491.19;;;22.64